sensor_id;sensor_type;location;lat;lon;timestamp;P1;durP1;ratioP1;P2;durP2;ratioP2
70757;SDS011;59316;52.964;7.102;2024-03-02T00:04:59;6.10;;;4.07;;
70757;SDS011;59316;52.964;7.102;2024-03-02T00:10:22;8.50;;;4.70;;
70757;SDS011;59316;52.964;7.102;2024-03-02T00:15:58;7.38;;;4.03;;
70757;SDS011;59316;52.964;7.102;2024-03-02T00:21:20;8.35;;;4.45;;
70757;SDS011;59316;52.964;7.102;2024-03-02T00:26:43;9.35;;;4.78;;
70757;SDS011;59316;52.964;7.102;2024-03-02T00:37:34;9.77;;;4.63;;
70757;SDS011;59316;52.964;7.102;2024-03-02T00:42:56;7.50;;;4.20;;
70757;SDS011;59316;52.964;7.102;2024-03-02T00:48:17;6.60;;;4.15;;
70757;SDS011;59316;52.964;7.102;2024-03-02T00:53:39;7.28;;;4.10;;
70757;SDS011;59316;52.964;7.102;2024-03-02T00:59:00;8.48;;;4.63;;
70757;SDS011;59316;52.964;7.102;2024-03-02T01:04:22;7.53;;;4.30;;
70757;SDS011;59316;52.964;7.102;2024-03-02T01:09:43;7.18;;;4.32;;
70757;SDS011;59316;52.964;7.102;2024-03-02T01:15:04;8.07;;;4.15;;
70757;SDS011;59316;52.964;7.102;2024-03-02T01:20:26;7.07;;;3.88;;
70757;SDS011;59316;52.964;7.102;2024-03-02T01:25:47;6.70;;;3.50;;
70757;SDS011;59316;52.964;7.102;2024-03-02T01:31:09;6.85;;;4.40;;
70757;SDS011;59316;52.964;7.102;2024-03-02T01:36:30;8.05;;;3.88;;
70757;SDS011;59316;52.964;7.102;2024-03-02T01:41:51;5.00;;;3.35;;
70757;SDS011;59316;52.964;7.102;2024-03-02T01:47:12;6.72;;;3.83;;
70757;SDS011;59316;52.964;7.102;2024-03-02T01:52:34;4.85;;;3.17;;
70757;SDS011;59316;52.964;7.102;2024-03-02T01:57:55;5.68;;;3.50;;
70757;SDS011;59316;52.964;7.102;2024-03-02T02:03:17;5.47;;;3.15;;
70757;SDS011;59316;52.964;7.102;2024-03-02T02:08:39;4.60;;;3.20;;
70757;SDS011;59316;52.964;7.102;2024-03-02T02:14:00;5.00;;;2.95;;
70757;SDS011;59316;52.964;7.102;2024-03-02T02:19:21;5.00;;;2.92;;
70757;SDS011;59316;52.964;7.102;2024-03-02T02:24:42;7.90;;;3.10;;
70757;SDS011;59316;52.964;7.102;2024-03-02T02:30:04;5.03;;;2.75;;
70757;SDS011;59316;52.964;7.102;2024-03-02T02:35:26;4.40;;;2.60;;
70757;SDS011;59316;52.964;7.102;2024-03-02T02:40:47;4.53;;;2.70;;
70757;SDS011;59316;52.964;7.102;2024-03-02T02:46:09;6.30;;;2.58;;
70757;SDS011;59316;52.964;7.102;2024-03-02T02:51:30;3.72;;;2.47;;
70757;SDS011;59316;52.964;7.102;2024-03-02T02:56:52;3.65;;;2.63;;
70757;SDS011;59316;52.964;7.102;2024-03-02T03:02:13;2.75;;;2.10;;
70757;SDS011;59316;52.964;7.102;2024-03-02T03:07:34;5.70;;;2.60;;
70757;SDS011;59316;52.964;7.102;2024-03-02T03:12:56;3.42;;;2.40;;
70757;SDS011;59316;52.964;7.102;2024-03-02T03:18:18;4.97;;;2.60;;
70757;SDS011;59316;52.964;7.102;2024-03-02T03:23:39;5.18;;;2.63;;
70757;SDS011;59316;52.964;7.102;2024-03-02T03:29:01;6.35;;;1.98;;
70757;SDS011;59316;52.964;7.102;2024-03-02T03:34:22;5.22;;;2.70;;
70757;SDS011;59316;52.964;7.102;2024-03-02T03:39:43;3.92;;;2.47;;
70757;SDS011;59316;52.964;7.102;2024-03-02T03:45:05;5.90;;;2.55;;
70757;SDS011;59316;52.964;7.102;2024-03-02T03:50:27;2.95;;;2.15;;
70757;SDS011;59316;52.964;7.102;2024-03-02T03:55:49;3.75;;;2.40;;
70757;SDS011;59316;52.964;7.102;2024-03-02T04:01:10;3.60;;;2.72;;
70757;SDS011;59316;52.964;7.102;2024-03-02T04:06:32;4.22;;;2.70;;
70757;SDS011;59316;52.964;7.102;2024-03-02T04:11:53;6.30;;;2.72;;
70757;SDS011;59316;52.964;7.102;2024-03-02T04:17:14;5.53;;;2.80;;
70757;SDS011;59316;52.964;7.102;2024-03-02T04:22:36;4.38;;;2.78;;
70757;SDS011;59316;52.964;7.102;2024-03-02T04:27:57;4.30;;;2.55;;
70757;SDS011;59316;52.964;7.102;2024-03-02T04:33:19;7.30;;;2.60;;
70757;SDS011;59316;52.964;7.102;2024-03-02T04:38:40;4.35;;;2.55;;
70757;SDS011;59316;52.964;7.102;2024-03-02T04:44:01;3.40;;;2.38;;
70757;SDS011;59316;52.964;7.102;2024-03-02T04:49:23;4.97;;;2.15;;
70757;SDS011;59316;52.964;7.102;2024-03-02T04:54:44;4.95;;;2.33;;
70757;SDS011;59316;52.964;7.102;2024-03-02T05:00:06;5.13;;;2.33;;
70757;SDS011;59316;52.964;7.102;2024-03-02T05:05:28;5.90;;;2.75;;
70757;SDS011;59316;52.964;7.102;2024-03-02T05:10:49;4.72;;;2.75;;
70757;SDS011;59316;52.964;7.102;2024-03-02T05:16:11;5.63;;;2.35;;
70757;SDS011;59316;52.964;7.102;2024-03-02T05:21:32;4.03;;;2.40;;
70757;SDS011;59316;52.964;7.102;2024-03-02T05:26:54;5.55;;;2.58;;
70757;SDS011;59316;52.964;7.102;2024-03-02T05:32:16;5.10;;;2.53;;
70757;SDS011;59316;52.964;7.102;2024-03-02T05:37:37;5.85;;;2.80;;
70757;SDS011;59316;52.964;7.102;2024-03-02T05:42:58;4.82;;;2.35;;
70757;SDS011;59316;52.964;7.102;2024-03-02T05:48:20;5.88;;;2.70;;
70757;SDS011;59316;52.964;7.102;2024-03-02T05:53:41;6.05;;;2.95;;
70757;SDS011;59316;52.964;7.102;2024-03-02T05:59:02;5.93;;;2.65;;
70757;SDS011;59316;52.964;7.102;2024-03-02T06:04:24;3.80;;;2.40;;
70757;SDS011;59316;52.964;7.102;2024-03-02T06:09:45;4.32;;;2.60;;
70757;SDS011;59316;52.964;7.102;2024-03-02T06:15:07;5.70;;;2.63;;
70757;SDS011;59316;52.964;7.102;2024-03-02T06:20:29;5.15;;;2.72;;
70757;SDS011;59316;52.964;7.102;2024-03-02T06:25:54;4.95;;;2.70;;
70757;SDS011;59316;52.964;7.102;2024-03-02T06:31:15;8.27;;;2.92;;
70757;SDS011;59316;52.964;7.102;2024-03-02T06:36:36;6.20;;;2.90;;
70757;SDS011;59316;52.964;7.102;2024-03-02T06:42:00;4.00;;;2.40;;
70757;SDS011;59316;52.964;7.102;2024-03-02T06:47:21;6.78;;;2.95;;
70757;SDS011;59316;52.964;7.102;2024-03-02T06:52:43;5.93;;;2.70;;
70757;SDS011;59316;52.964;7.102;2024-03-02T06:58:04;6.05;;;3.33;;
70757;SDS011;59316;52.964;7.102;2024-03-02T07:03:26;5.72;;;2.95;;
70757;SDS011;59316;52.964;7.102;2024-03-02T07:08:47;7.53;;;3.30;;
70757;SDS011;59316;52.964;7.102;2024-03-02T07:14:10;6.07;;;3.25;;
70757;SDS011;59316;52.964;7.102;2024-03-02T07:19:31;4.22;;;2.80;;
70757;SDS011;59316;52.964;7.102;2024-03-02T07:24:53;6.65;;;3.08;;
70757;SDS011;59316;52.964;7.102;2024-03-02T07:30:15;5.25;;;3.00;;
70757;SDS011;59316;52.964;7.102;2024-03-02T07:35:36;6.35;;;3.22;;
70757;SDS011;59316;52.964;7.102;2024-03-02T07:40:57;7.13;;;3.08;;
70757;SDS011;59316;52.964;7.102;2024-03-02T07:46:19;6.13;;;2.97;;
70757;SDS011;59316;52.964;7.102;2024-03-02T07:51:40;4.70;;;3.03;;
70757;SDS011;59316;52.964;7.102;2024-03-02T07:57:02;4.60;;;2.95;;
70757;SDS011;59316;52.964;7.102;2024-03-02T08:02:24;4.70;;;3.03;;
70757;SDS011;59316;52.964;7.102;2024-03-02T08:07:45;5.05;;;3.00;;
70757;SDS011;59316;52.964;7.102;2024-03-02T08:13:07;7.13;;;3.38;;
70757;SDS011;59316;52.964;7.102;2024-03-02T08:18:29;4.78;;;2.83;;
70757;SDS011;59316;52.964;7.102;2024-03-02T08:23:51;4.40;;;2.92;;
70757;SDS011;59316;52.964;7.102;2024-03-02T08:29:12;4.50;;;2.67;;
70757;SDS011;59316;52.964;7.102;2024-03-02T08:34:33;4.28;;;2.75;;
70757;SDS011;59316;52.964;7.102;2024-03-02T08:39:54;5.35;;;3.08;;
70757;SDS011;59316;52.964;7.102;2024-03-02T08:45:16;5.00;;;3.33;;
70757;SDS011;59316;52.964;7.102;2024-03-02T08:50:38;6.72;;;2.67;;
70757;SDS011;59316;52.964;7.102;2024-03-02T08:55:59;3.40;;;2.22;;
70757;SDS011;59316;52.964;7.102;2024-03-02T09:01:23;5.37;;;2.50;;
70757;SDS011;59316;52.964;7.102;2024-03-02T09:06:44;3.55;;;2.38;;
70757;SDS011;59316;52.964;7.102;2024-03-02T09:12:06;5.15;;;2.33;;
70757;SDS011;59316;52.964;7.102;2024-03-02T09:17:28;3.13;;;2.15;;
70757;SDS011;59316;52.964;7.102;2024-03-02T09:22:50;6.15;;;2.80;;
70757;SDS011;59316;52.964;7.102;2024-03-02T09:28:11;4.72;;;2.38;;
70757;SDS011;59316;52.964;7.102;2024-03-02T09:33:34;2.67;;;2.20;;
70757;SDS011;59316;52.964;7.102;2024-03-02T09:38:55;3.63;;;2.28;;
70757;SDS011;59316;52.964;7.102;2024-03-02T09:44:17;2.90;;;2.10;;
70757;SDS011;59316;52.964;7.102;2024-03-02T09:49:38;4.07;;;1.88;;
70757;SDS011;59316;52.964;7.102;2024-03-02T09:55:00;2.67;;;2.03;;
70757;SDS011;59316;52.964;7.102;2024-03-02T10:00:21;2.90;;;2.08;;
70757;SDS011;59316;52.964;7.102;2024-03-02T10:05:43;3.28;;;2.08;;
70757;SDS011;59316;52.964;7.102;2024-03-02T10:11:13;3.53;;;2.47;;
70757;SDS011;59316;52.964;7.102;2024-03-02T10:16:53;3.53;;;1.83;;
70757;SDS011;59316;52.964;7.102;2024-03-02T10:22:30;3.60;;;1.77;;
70757;SDS011;59316;52.964;7.102;2024-03-02T10:27:52;4.20;;;2.00;;
70757;SDS011;59316;52.964;7.102;2024-03-02T10:33:13;2.85;;;2.15;;
70757;SDS011;59316;52.964;7.102;2024-03-02T10:38:35;2.95;;;1.95;;
70757;SDS011;59316;52.964;7.102;2024-03-02T10:43:57;2.58;;;1.73;;
70757;SDS011;59316;52.964;7.102;2024-03-02T10:49:20;4.65;;;2.40;;
70757;SDS011;59316;52.964;7.102;2024-03-02T10:54:43;2.45;;;2.10;;
70757;SDS011;59316;52.964;7.102;2024-03-02T11:00:05;6.40;;;2.65;;
70757;SDS011;59316;52.964;7.102;2024-03-02T11:05:32;3.25;;;2.47;;
70757;SDS011;59316;52.964;7.102;2024-03-02T11:10:57;4.00;;;3.03;;
70757;SDS011;59316;52.964;7.102;2024-03-02T11:16:31;4.63;;;2.78;;
70757;SDS011;59316;52.964;7.102;2024-03-02T11:21:56;6.40;;;2.65;;
70757;SDS011;59316;52.964;7.102;2024-03-02T11:33:07;3.90;;;2.33;;
70757;SDS011;59316;52.964;7.102;2024-03-02T11:38:32;3.63;;;2.10;;
70757;SDS011;59316;52.964;7.102;2024-03-02T11:43:55;4.87;;;2.13;;
70757;SDS011;59316;52.964;7.102;2024-03-02T11:49:16;2.28;;;1.90;;
70757;SDS011;59316;52.964;7.102;2024-03-02T11:54:57;3.65;;;1.90;;
70757;SDS011;59316;52.964;7.102;2024-03-02T12:00:19;2.78;;;1.98;;
70757;SDS011;59316;52.964;7.102;2024-03-02T12:05:41;3.58;;;1.60;;
70757;SDS011;59316;52.964;7.102;2024-03-02T12:11:03;1.92;;;1.60;;
70757;SDS011;59316;52.964;7.102;2024-03-02T12:16:25;3.20;;;1.90;;
70757;SDS011;59316;52.964;7.102;2024-03-02T12:21:46;3.80;;;1.80;;
70757;SDS011;59316;52.964;7.102;2024-03-02T12:27:08;2.10;;;1.75;;
70757;SDS011;59316;52.964;7.102;2024-03-02T12:32:29;2.25;;;1.88;;
70757;SDS011;59316;52.964;7.102;2024-03-02T12:37:51;3.80;;;2.28;;
70757;SDS011;59316;52.964;7.102;2024-03-02T12:43:14;2.40;;;2.00;;
70757;SDS011;59316;52.964;7.102;2024-03-02T12:48:36;3.90;;;2.10;;
70757;SDS011;59316;52.964;7.102;2024-03-02T12:53:57;4.07;;;2.60;;
70757;SDS011;59316;52.964;7.102;2024-03-02T12:59:19;3.17;;;2.40;;
70757;SDS011;59316;52.964;7.102;2024-03-02T13:04:43;3.63;;;2.33;;
70757;SDS011;59316;52.964;7.102;2024-03-02T13:10:05;5.10;;;2.13;;
70757;SDS011;59316;52.964;7.102;2024-03-02T13:15:27;2.75;;;2.20;;
70757;SDS011;59316;52.964;7.102;2024-03-02T13:20:49;5.43;;;2.20;;
70757;SDS011;59316;52.964;7.102;2024-03-02T13:26:10;3.22;;;2.03;;
70757;SDS011;59316;52.964;7.102;2024-03-02T13:31:32;3.00;;;1.85;;
70757;SDS011;59316;52.964;7.102;2024-03-02T13:36:53;4.78;;;1.85;;
70757;SDS011;59316;52.964;7.102;2024-03-02T13:42:15;3.67;;;2.47;;
70757;SDS011;59316;52.964;7.102;2024-03-02T13:47:36;3.33;;;2.20;;
70757;SDS011;59316;52.964;7.102;2024-03-02T13:52:58;2.55;;;2.00;;
70757;SDS011;59316;52.964;7.102;2024-03-02T13:58:19;3.85;;;2.50;;
70757;SDS011;59316;52.964;7.102;2024-03-02T14:03:41;3.90;;;2.20;;
70757;SDS011;59316;52.964;7.102;2024-03-02T14:09:02;3.78;;;2.15;;
70757;SDS011;59316;52.964;7.102;2024-03-02T14:14:23;4.38;;;2.15;;
70757;SDS011;59316;52.964;7.102;2024-03-02T14:19:45;3.03;;;2.00;;
70757;SDS011;59316;52.964;7.102;2024-03-02T14:25:06;4.70;;;2.63;;
70757;SDS011;59316;52.964;7.102;2024-03-02T14:30:28;3.97;;;2.35;;
70757;SDS011;59316;52.964;7.102;2024-03-02T14:35:50;3.08;;;2.17;;
70757;SDS011;59316;52.964;7.102;2024-03-02T14:41:11;4.85;;;2.67;;
70757;SDS011;59316;52.964;7.102;2024-03-02T14:46:32;3.03;;;2.40;;
70757;SDS011;59316;52.964;7.102;2024-03-02T14:51:54;3.13;;;2.63;;
70757;SDS011;59316;52.964;7.102;2024-03-02T14:57:15;4.43;;;2.63;;
70757;SDS011;59316;52.964;7.102;2024-03-02T15:02:37;5.25;;;3.03;;
70757;SDS011;59316;52.964;7.102;2024-03-02T15:08:08;7.03;;;2.72;;
70757;SDS011;59316;52.964;7.102;2024-03-02T15:13:30;3.55;;;2.50;;
70757;SDS011;59316;52.964;7.102;2024-03-02T15:18:51;4.47;;;2.70;;
70757;SDS011;59316;52.964;7.102;2024-03-02T15:24:13;4.13;;;2.70;;
70757;SDS011;59316;52.964;7.102;2024-03-02T15:29:34;4.43;;;2.50;;
70757;SDS011;59316;52.964;7.102;2024-03-02T15:34:56;5.68;;;2.70;;
70757;SDS011;59316;52.964;7.102;2024-03-02T15:40:18;5.32;;;2.72;;
70757;SDS011;59316;52.964;7.102;2024-03-02T15:45:39;4.65;;;3.30;;
70757;SDS011;59316;52.964;7.102;2024-03-02T15:51:00;4.97;;;2.40;;
70757;SDS011;59316;52.964;7.102;2024-03-02T15:56:26;5.47;;;2.88;;
70757;SDS011;59316;52.964;7.102;2024-03-02T16:01:47;3.22;;;2.10;;
70757;SDS011;59316;52.964;7.102;2024-03-02T16:07:09;2.83;;;2.10;;
70757;SDS011;59316;52.964;7.102;2024-03-02T16:12:30;3.13;;;1.80;;
70757;SDS011;59316;52.964;7.102;2024-03-02T16:17:52;4.18;;;2.05;;
70757;SDS011;59316;52.964;7.102;2024-03-02T16:23:13;3.55;;;1.92;;
70757;SDS011;59316;52.964;7.102;2024-03-02T16:28:34;2.65;;;2.03;;
70757;SDS011;59316;52.964;7.102;2024-03-02T16:33:55;4.22;;;2.22;;
70757;SDS011;59316;52.964;7.102;2024-03-02T16:39:17;3.22;;;2.35;;
70757;SDS011;59316;52.964;7.102;2024-03-02T16:44:39;4.03;;;2.58;;
70757;SDS011;59316;52.964;7.102;2024-03-02T16:50:00;6.22;;;2.47;;
70757;SDS011;59316;52.964;7.102;2024-03-02T16:55:22;4.18;;;2.80;;
70757;SDS011;59316;52.964;7.102;2024-03-02T17:00:44;4.95;;;2.80;;
70757;SDS011;59316;52.964;7.102;2024-03-02T17:06:08;3.88;;;2.65;;
70757;SDS011;59316;52.964;7.102;2024-03-02T17:11:29;3.78;;;2.78;;
70757;SDS011;59316;52.964;7.102;2024-03-02T17:16:51;4.07;;;2.58;;
70757;SDS011;59316;52.964;7.102;2024-03-02T17:22:12;3.63;;;2.85;;
70757;SDS011;59316;52.964;7.102;2024-03-02T17:27:33;4.18;;;2.47;;
70757;SDS011;59316;52.964;7.102;2024-03-02T17:32:58;5.53;;;3.05;;
70757;SDS011;59316;52.964;7.102;2024-03-02T17:38:21;5.15;;;3.13;;
70757;SDS011;59316;52.964;7.102;2024-03-02T17:43:42;5.43;;;3.00;;
70757;SDS011;59316;52.964;7.102;2024-03-02T17:49:04;4.72;;;2.75;;
70757;SDS011;59316;52.964;7.102;2024-03-02T17:54:25;5.63;;;3.20;;
70757;SDS011;59316;52.964;7.102;2024-03-02T17:59:47;4.38;;;3.20;;
70757;SDS011;59316;52.964;7.102;2024-03-02T18:05:08;7.05;;;3.10;;
70757;SDS011;59316;52.964;7.102;2024-03-02T18:10:30;5.30;;;3.13;;
70757;SDS011;59316;52.964;7.102;2024-03-02T18:15:51;4.05;;;2.60;;
70757;SDS011;59316;52.964;7.102;2024-03-02T18:21:13;6.65;;;3.00;;
70757;SDS011;59316;52.964;7.102;2024-03-02T18:26:35;7.25;;;3.33;;
70757;SDS011;59316;52.964;7.102;2024-03-02T18:31:56;5.05;;;3.42;;
70757;SDS011;59316;52.964;7.102;2024-03-02T18:37:18;5.57;;;2.97;;
70757;SDS011;59316;52.964;7.102;2024-03-02T18:42:39;5.70;;;3.83;;
70757;SDS011;59316;52.964;7.102;2024-03-02T18:48:01;5.75;;;3.80;;
70757;SDS011;59316;52.964;7.102;2024-03-02T18:53:24;5.65;;;3.83;;
70757;SDS011;59316;52.964;7.102;2024-03-02T18:58:45;5.40;;;3.47;;
70757;SDS011;59316;52.964;7.102;2024-03-02T19:04:07;7.95;;;4.13;;
70757;SDS011;59316;52.964;7.102;2024-03-02T19:09:28;8.98;;;4.07;;
70757;SDS011;59316;52.964;7.102;2024-03-02T19:14:50;8.27;;;4.03;;
70757;SDS011;59316;52.964;7.102;2024-03-02T19:20:11;5.43;;;3.63;;
70757;SDS011;59316;52.964;7.102;2024-03-02T19:25:33;6.28;;;4.10;;
70757;SDS011;59316;52.964;7.102;2024-03-02T19:30:55;6.40;;;4.07;;
70757;SDS011;59316;52.964;7.102;2024-03-02T19:36:16;6.22;;;4.30;;
70757;SDS011;59316;52.964;7.102;2024-03-02T19:41:38;5.50;;;3.75;;
70757;SDS011;59316;52.964;7.102;2024-03-02T19:46:59;4.82;;;3.63;;
70757;SDS011;59316;52.964;7.102;2024-03-02T19:52:21;5.68;;;3.58;;
70757;SDS011;59316;52.964;7.102;2024-03-02T19:57:44;7.80;;;4.20;;
70757;SDS011;59316;52.964;7.102;2024-03-02T20:03:06;4.72;;;3.28;;
70757;SDS011;59316;52.964;7.102;2024-03-02T20:08:51;4.97;;;3.45;;
70757;SDS011;59316;52.964;7.102;2024-03-02T20:14:13;5.70;;;3.47;;
70757;SDS011;59316;52.964;7.102;2024-03-02T20:19:38;5.03;;;3.47;;
70757;SDS011;59316;52.964;7.102;2024-03-02T20:24:59;5.32;;;3.40;;
70757;SDS011;59316;52.964;7.102;2024-03-02T20:30:21;4.72;;;3.13;;
70757;SDS011;59316;52.964;7.102;2024-03-02T20:35:42;6.60;;;3.10;;
70757;SDS011;59316;52.964;7.102;2024-03-02T20:41:03;5.68;;;2.63;;
70757;SDS011;59316;52.964;7.102;2024-03-02T20:46:25;7.00;;;3.63;;
70757;SDS011;59316;52.964;7.102;2024-03-02T20:51:46;5.13;;;3.17;;
70757;SDS011;59316;52.964;7.102;2024-03-02T20:57:07;4.38;;;2.83;;
70757;SDS011;59316;52.964;7.102;2024-03-02T21:02:29;4.95;;;2.90;;
70757;SDS011;59316;52.964;7.102;2024-03-02T21:07:51;4.65;;;3.22;;
70757;SDS011;59316;52.964;7.102;2024-03-02T21:13:12;5.85;;;3.50;;
70757;SDS011;59316;52.964;7.102;2024-03-02T21:18:33;6.22;;;3.53;;
70757;SDS011;59316;52.964;7.102;2024-03-02T21:23:55;4.53;;;3.15;;
70757;SDS011;59316;52.964;7.102;2024-03-02T21:29:16;7.57;;;3.40;;
70757;SDS011;59316;52.964;7.102;2024-03-02T21:34:38;5.55;;;3.40;;
70757;SDS011;59316;52.964;7.102;2024-03-02T21:40:01;6.00;;;3.17;;
70757;SDS011;59316;52.964;7.102;2024-03-02T21:45:23;7.30;;;3.63;;
70757;SDS011;59316;52.964;7.102;2024-03-02T21:50:44;6.28;;;3.58;;
70757;SDS011;59316;52.964;7.102;2024-03-02T21:56:06;6.88;;;3.85;;
70757;SDS011;59316;52.964;7.102;2024-03-02T22:01:27;6.78;;;3.95;;
70757;SDS011;59316;52.964;7.102;2024-03-02T22:06:48;6.60;;;3.63;;
70757;SDS011;59316;52.964;7.102;2024-03-02T22:12:10;8.43;;;4.15;;
70757;SDS011;59316;52.964;7.102;2024-03-02T22:17:31;5.63;;;3.88;;
70757;SDS011;59316;52.964;7.102;2024-03-02T22:22:53;7.75;;;4.45;;
70757;SDS011;59316;52.964;7.102;2024-03-02T22:28:14;8.90;;;4.20;;
70757;SDS011;59316;52.964;7.102;2024-03-02T22:33:37;8.80;;;4.00;;
70757;SDS011;59316;52.964;7.102;2024-03-02T22:38:58;11.38;;;4.38;;
70757;SDS011;59316;52.964;7.102;2024-03-02T22:44:19;7.30;;;4.00;;
70757;SDS011;59316;52.964;7.102;2024-03-02T22:49:41;9.43;;;4.75;;
70757;SDS011;59316;52.964;7.102;2024-03-02T22:55:02;7.30;;;4.75;;
70757;SDS011;59316;52.964;7.102;2024-03-02T23:00:24;13.73;;;5.45;;
70757;SDS011;59316;52.964;7.102;2024-03-02T23:05:45;9.40;;;5.13;;
70757;SDS011;59316;52.964;7.102;2024-03-02T23:11:07;9.05;;;4.95;;
70757;SDS011;59316;52.964;7.102;2024-03-02T23:16:28;10.80;;;6.05;;
70757;SDS011;59316;52.964;7.102;2024-03-02T23:21:50;11.50;;;5.88;;
70757;SDS011;59316;52.964;7.102;2024-03-02T23:27:11;11.73;;;5.95;;
70757;SDS011;59316;52.964;7.102;2024-03-02T23:32:32;11.45;;;5.85;;
70757;SDS011;59316;52.964;7.102;2024-03-02T23:37:54;11.55;;;6.82;;
70757;SDS011;59316;52.964;7.102;2024-03-02T23:43:15;11.52;;;6.07;;
70757;SDS011;59316;52.964;7.102;2024-03-02T23:48:37;9.35;;;5.82;;
70757;SDS011;59316;52.964;7.102;2024-03-02T23:53:59;11.30;;;6.18;;
70757;SDS011;59316;52.964;7.102;2024-03-02T23:59:20;12.30;;;6.68;;
